Solano — WDB7930 — position and weather

sailwx.info

Track history (hours):
 
Tides and Currents Weather Stations Pressure Air Temp Water Temp Dewpoint Dewpoint Depression Visibility Wind Speed Wind Dir Waves Ship Positions

Solano

Owner: San Francisco Bay Area Water Emergency Transportation Authority, Vallejo, WA. More information available from US FCC via Universal Licensing System and Coast Guard Vessel Documentation Center.

Last reported at 2017-Nov-07 21:35 UTC. Time now 2017-Nov-21 20:53 UTC.
Position N 37°47' W 122°17'.
Warning: this ship's position is 13 days out of date.

Length 38 m.

Type: Passenger vessel. MMSI: 366950020.

Date/timePositionNaut miles runAvg speedWind from/ knotsBaromVisibWave heightAir tempDewpointWater temp
2017-Nov-07 21:35N 37°47' W 122°17'0 0.0
2017-Nov-07 21:30N 37°47' W 122°17'713.6
2017-Nov-07 21:01N 37°52' W 122°24'510.2
2017-Nov-07 20:30N 37°47' W 122°21'1 2.2
2017-Nov-07 20:01N 37°46' W 122°21'0 0.3
2017-Nov-07 19:30N 37°46' W 122°21'1 2.3
2017-Nov-07 19:00N 37°45' W 122°20'3 5.2
2017-Nov-07 18:30N 37°48' W 122°19'1 2.1
2017-Nov-07 18:00N 37°47' W 122°17'0 0.0
2017-Nov-07 17:30N 37°47' W 122°17'0 0.0
2017-Nov-07 16:58N 37°47' W 122°17'0 0.0
2017-Nov-07 16:28N 37°47' W 122°17'0 0.0
2017-Nov-07 15:58N 37°47' W 122°17'0 0.0
2017-Nov-07 15:19N 37°47' W 122°17'0 0.0
2017-Nov-07 14:58N 37°47' W 122°17'0 0.0
2017-Nov-07 14:28N 37°47' W 122°17'0 0.0
2017-Nov-07 13:58N 37°47' W 122°17'0 0.0
2017-Nov-07 13:25N 37°47' W 122°17'0 0.0
2017-Nov-07 12:58N 37°47' W 122°17'0 0.0
2017-Nov-07 12:28N 37°47' W 122°17'0 0.0
2017-Nov-07 11:58N 37°47' W 122°17'0 0.0
2017-Nov-07 11:28N 37°47' W 122°17'0 0.0
2017-Nov-07 10:58N 37°47' W 122°17'0 0.0
2017-Nov-07 10:28N 37°47' W 122°17'0 0.0
2017-Nov-07 09:58N 37°47' W 122°17'0 0.0
2017-Nov-07 09:28N 37°47' W 122°17'0 0.0
2017-Nov-07 08:58N 37°47' W 122°17'0 0.0
2017-Nov-07 08:28N 37°47' W 122°17'0 0.0
2017-Nov-07 07:58N 37°47' W 122°17'0 0.0
2017-Nov-07 07:28N 37°47' W 122°17'0 0.0
2017-Nov-07 06:58N 37°47' W 122°17'0 0.0
2017-Nov-07 06:28N 37°47' W 122°17'0 0.0
2017-Nov-07 05:58N 37°47' W 122°17'0 0.0
2017-Nov-07 05:28N 37°47' W 122°17'0 0.0
2017-Nov-07 04:58N 37°47' W 122°17'0 0.0
2017-Nov-07 04:28N 37°47' W 122°17'0 0.0
2017-Nov-07 03:58N 37°47' W 122°17'0 0.0
2017-Nov-07 03:28N 37°47' W 122°17'0 0.0
2017-Nov-07 02:58N 37°47' W 122°17'0 0.0
2017-Nov-07 02:28N 37°47' W 122°17'0 0.0
2017-Nov-07 01:58N 37°47' W 122°17'0 0.0
2017-Nov-07 01:28N 37°47' W 122°17'0 0.0
2017-Nov-07 00:58N 37°47' W 122°17'0 0.0
2017-Nov-07 00:28N 37°47' W 122°17'0 0.0
2017-Nov-06 23:58N 37°47' W 122°17'0 0.0
2017-Nov-06 23:28N 37°47' W 122°17'0 0.0
2017-Nov-06 22:55N 37°47' W 122°17'0 0.0
2017-Nov-06 22:28N 37°47' W 122°17'0 0.0
2017-Nov-06 21:58N 37°47' W 122°17'0 0.0
2017-Nov-06 21:28N 37°47' W 122°17'0 0.0
2017-Nov-06 20:58N 37°47' W 122°17'0 0.0
2017-Nov-06 20:28N 37°47' W 122°17'  
2017-Nov-04 01:39N 38°06' W 122°16'0 2.1
2017-Nov-04 01:30N 38°06' W 122°16'713.8
2017-Nov-04 01:00N 38°01' W 122°22'1326.8
2017-Nov-04 00:30N 37°48' W 122°24'0 0.0
2017-Nov-04 00:00N 37°48' W 122°24'0 0.0
2017-Nov-03 23:30N 37°48' W 122°24'1825.0
2017-Nov-03 22:47N 38°04' W 122°15'2 6.7
2017-Nov-03 22:30N 38°06' W 122°16'815.3
2017-Nov-03 22:00N 38°01' W 122°23'1326.4
2017-Nov-03 21:30N 37°48' W 122°24'0 0.0
2017-Nov-03 21:00N 37°48' W 122°24'0 0.0
2017-Nov-03 20:30N 37°48' W 122°24'0 0.0
2017-Nov-03 20:00N 37°48' W 122°24'1915.5
2017-Nov-03 18:46N 38°06' W 122°16'2 1.5
2017-Nov-03 17:17N 38°04' W 122°15'1132.8
2017-Nov-03 16:56N 37°56' W 122°26'919.9
2017-Nov-03 16:31N 37°48' W 122°24'1914.9
2017-Nov-03 15:14N 38°06' W 122°16'2 8.5
2017-Nov-03 14:58N 38°04' W 122°16'1226.4
2017-Nov-03 14:31N 37°54' W 122°26'713.7
2017-Nov-03 14:00N 37°48' W 122°24'1222.5
2017-Nov-03 13:29N 37°60' W 122°25'10 0.8
2017-Nov-03 01:34N 38°06' W 122°16'2 6.8
2017-Nov-03 01:16N 38°04' W 122°15'830.2
2017-Nov-03 01:00N 38°00' W 122°24'1325.3
2017-Nov-03 00:30N 37°48' W 122°24'0 0.7
2017-Nov-03 00:00N 37°48' W 122°23'1810.5
2017-Nov-02 22:18N 38°05' W 122°15'723.6
2017-Nov-02 22:00N 38°01' W 122°22'1427.0
2017-Nov-02 21:31N 37°48' W 122°24'0 0.0
2017-Nov-02 21:01N 37°48' W 122°24'0 0.0
2017-Nov-02 20:30N 37°48' W 122°24'0 0.3
2017-Nov-02 20:01N 37°48' W 122°24'1426.2
2017-Nov-02 19:29N 38°02' W 122°22'6 2.9
2017-Nov-02 17:20N 38°04' W 122°15'1127.5
2017-Nov-02 16:56N 37°57' W 122°26'922.3
2017-Nov-02 16:30N 37°48' W 122°24'1914.2
2017-Nov-02 15:09N 38°06' W 122°16'2 8.8
2017-Nov-02 14:56N 38°04' W 122°15'1330.1
2017-Nov-02 14:31N 37°54' W 122°25'713.4
2017-Nov-02 14:00N 37°48' W 122°24'19 1.6
2017-Nov-02 01:42N 38°06' W 122°16'2 5.6
2017-Nov-02 01:20N 38°04' W 122°15'825.2
2017-Nov-02 01:00N 38°00' W 122°24'1224.6
2017-Nov-02 00:31N 37°48' W 122°24'0 0.1
2017-Nov-02 00:01N 37°48' W 122°24'1912.9
2017-Nov-01 22:31N 38°06' W 122°16'2 7.2
2017-Nov-01 22:17N 38°05' W 122°15'726.8
2017-Nov-01 22:00N 38°01' W 122°23'1326.3
2017-Nov-01 21:30N 37°48' W 122°24'0 0.0
2017-Nov-01 21:00N 37°48' W 122°24'0 0.0
2017-Nov-01 20:30N 37°48' W 122°24'0 0.0
2017-Nov-01 20:00N 37°48' W 122°24'1622.4
2017-Nov-01 19:18N 38°03' W 122°17'3 9.7
2017-Nov-01 18:57N 38°06' W 122°16'0 0.0
2017-Nov-01 01:37N 38°06' W 122°16'0 1.9
2017-Nov-01 01:26N 38°06' W 122°16'715.9
2017-Nov-01 01:01N 38°01' W 122°22'1326.9
2017-Nov-01 00:30N 37°48' W 122°24'0 0.8
2017-Nov-01 00:01N 37°48' W 122°23'1727.9
2017-Oct-31 23:24N 38°04' W 122°15'2 3.2
2017-Oct-31 22:47N 38°06' W 122°16'1 3.1
2017-Oct-31 22:18N 38°05' W 122°15'725.5
2017-Oct-31 22:00N 38°01' W 122°23'1326.1
2017-Oct-31 21:30N 37°48' W 122°24'0 0.0
2017-Oct-31 21:00N 37°48' W 122°24'0 0.0
2017-Oct-31 20:30N 37°48' W 122°24'0 0.0
2017-Oct-31 20:01N 37°48' W 122°24'18 6.8
2017-Oct-31 17:23N 38°04' W 122°15'1231.8
2017-Oct-31 17:00N 37°57' W 122°27'918.3
2017-Oct-31 16:31N 37°48' W 122°24'1710.8
2017-Oct-31 14:56N 38°04' W 122°16'1229.0
2017-Oct-31 14:30N 37°54' W 122°25'611.8
2017-Oct-31 14:01N 37°48' W 122°24'19 2.0
2017-Oct-31 04:31N 38°06' W 122°16'014.3
2017-Oct-31 04:30N 38°06' W 122°16'2 3.8
2017-Oct-31 03:59N 38°04' W 122°15'1327.7
2017-Oct-31 03:30N 37°54' W 122°25'612.1
2017-Oct-31 03:00N 37°48' W 122°24'612.3
2017-Oct-31 02:31N 37°54' W 122°26'1428.1
2017-Oct-31 02:00N 38°04' W 122°15'2 2.4
2017-Oct-31 01:16N 38°06' W 122°16'2 8.1
2017-Oct-31 01:01N 38°04' W 122°15'1326.4
2017-Oct-31 00:31N 37°53' W 122°25'611.4
2017-Oct-31 00:00N 37°48' W 122°24'19 4.4
2017-Oct-30 19:41N 38°06' W 122°16'2 3.9
2017-Oct-30 19:10N 38°04' W 122°15'633.3
2017-Oct-30 19:00N 38°02' W 122°21'1327.6
2017-Oct-30 18:30N 37°49' W 122°25'1 2.4
2017-Oct-30 18:01N 37°48' W 122°23'1919.4
2017-Oct-30 17:02N 38°06' W 122°16'0 0.0
2017-Oct-30 16:40N 38°06' W 122°16'0 0.0
2017-Oct-30 16:30N 38°06' W 122°16'1 2.9
2017-Oct-30 16:00N 38°05' W 122°15'1326.3
2017-Oct-30 15:31N 37°55' W 122°25'611.9
2017-Oct-30 15:01N 37°49' W 122°23'1818.3
2017-Oct-30 14:01N 38°06' W 122°16'0 0.0
2017-Oct-29 05:27N 38°06' W 122°16'1 1.5
2017-Oct-29 05:00N 38°06' W 122°15'1121.9
2017-Oct-29 04:29N 37°58' W 122°26'1021.0
2017-Oct-29 04:00N 37°48' W 122°24'  
Track history (hours):
 
Tides and Currents Weather Stations Pressure Air Temp Water Temp Dewpoint Dewpoint Depression Visibility Wind Speed Wind Dir Waves Ship Positions

Solano

Owner: San Francisco Bay Area Water Emergency Transportation Authority, Vallejo, WA. More information available from US FCC via Universal Licensing System and Coast Guard Vessel Documentation Center.

Last reported at 2017-Nov-07 21:35 UTC. Time now 2017-Nov-21 20:53 UTC.
Position N 37°47' W 122°17'.
Warning: this ship's position is 13 days out of date.

Length 38 m.

Type: Passenger vessel. MMSI: 366950020.

Date/timePositionNaut miles runAvg speedWind from/ knotsBaromVisibWave heightAir tempDewpointWater temp
2017-Nov-07 21:35N 37°47' W 122°17'0 0.0
2017-Nov-07 21:30N 37°47' W 122°17'713.6
2017-Nov-07 21:01N 37°52' W 122°24'510.2
2017-Nov-07 20:30N 37°47' W 122°21'1 2.2
2017-Nov-07 20:01N 37°46' W 122°21'0 0.3
2017-Nov-07 19:30N 37°46' W 122°21'1 2.3
2017-Nov-07 19:00N 37°45' W 122°20'3 5.2
2017-Nov-07 18:30N 37°48' W 122°19'1 2.1
2017-Nov-07 18:00N 37°47' W 122°17'0 0.0
2017-Nov-07 17:30N 37°47' W 122°17'0 0.0
2017-Nov-07 16:58N 37°47' W 122°17'0 0.0
2017-Nov-07 16:28N 37°47' W 122°17'0 0.0
2017-Nov-07 15:58N 37°47' W 122°17'0 0.0
2017-Nov-07 15:19N 37°47' W 122°17'0 0.0
2017-Nov-07 14:58N 37°47' W 122°17'0 0.0
2017-Nov-07 14:28N 37°47' W 122°17'0 0.0
2017-Nov-07 13:58N 37°47' W 122°17'0 0.0
2017-Nov-07 13:25N 37°47' W 122°17'0 0.0
2017-Nov-07 12:58N 37°47' W 122°17'0 0.0
2017-Nov-07 12:28N 37°47' W 122°17'0 0.0
2017-Nov-07 11:58N 37°47' W 122°17'0 0.0
2017-Nov-07 11:28N 37°47' W 122°17'0 0.0
2017-Nov-07 10:58N 37°47' W 122°17'0 0.0
2017-Nov-07 10:28N 37°47' W 122°17'0 0.0
2017-Nov-07 09:58N 37°47' W 122°17'0 0.0
2017-Nov-07 09:28N 37°47' W 122°17'0 0.0
2017-Nov-07 08:58N 37°47' W 122°17'0 0.0
2017-Nov-07 08:28N 37°47' W 122°17'0 0.0
2017-Nov-07 07:58N 37°47' W 122°17'0 0.0
2017-Nov-07 07:28N 37°47' W 122°17'0 0.0
2017-Nov-07 06:58N 37°47' W 122°17'0 0.0
2017-Nov-07 06:28N 37°47' W 122°17'0 0.0
2017-Nov-07 05:58N 37°47' W 122°17'0 0.0
2017-Nov-07 05:28N 37°47' W 122°17'0 0.0
2017-Nov-07 04:58N 37°47' W 122°17'0 0.0
2017-Nov-07 04:28N 37°47' W 122°17'0 0.0
2017-Nov-07 03:58N 37°47' W 122°17'0 0.0
2017-Nov-07 03:28N 37°47' W 122°17'0 0.0
2017-Nov-07 02:58N 37°47' W 122°17'0 0.0
2017-Nov-07 02:28N 37°47' W 122°17'0 0.0
2017-Nov-07 01:58N 37°47' W 122°17'0 0.0
2017-Nov-07 01:28N 37°47' W 122°17'0 0.0
2017-Nov-07 00:58N 37°47' W 122°17'0 0.0
2017-Nov-07 00:28N 37°47' W 122°17'0 0.0
2017-Nov-06 23:58N 37°47' W 122°17'0 0.0
2017-Nov-06 23:28N 37°47' W 122°17'0 0.0
2017-Nov-06 22:55N 37°47' W 122°17'0 0.0
2017-Nov-06 22:28N 37°47' W 122°17'0 0.0
2017-Nov-06 21:58N 37°47' W 122°17'0 0.0
2017-Nov-06 21:28N 37°47' W 122°17'0 0.0
2017-Nov-06 20:58N 37°47' W 122°17'0 0.0
2017-Nov-06 20:28N 37°47' W 122°17'  
2017-Nov-04 01:39N 38°06' W 122°16'0 2.1
2017-Nov-04 01:30N 38°06' W 122°16'713.8
2017-Nov-04 01:00N 38°01' W 122°22'1326.8
2017-Nov-04 00:30N 37°48' W 122°24'0 0.0
2017-Nov-04 00:00N 37°48' W 122°24'0 0.0
2017-Nov-03 23:30N 37°48' W 122°24'1825.0
2017-Nov-03 22:47N 38°04' W 122°15'2 6.7
2017-Nov-03 22:30N 38°06' W 122°16'815.3
2017-Nov-03 22:00N 38°01' W 122°23'1326.4
2017-Nov-03 21:30N 37°48' W 122°24'0 0.0
2017-Nov-03 21:00N 37°48' W 122°24'0 0.0
2017-Nov-03 20:30N 37°48' W 122°24'0 0.0
2017-Nov-03 20:00N 37°48' W 122°24'1915.5
2017-Nov-03 18:46N 38°06' W 122°16'2 1.5
2017-Nov-03 17:17N 38°04' W 122°15'1132.8
2017-Nov-03 16:56N 37°56' W 122°26'919.9
2017-Nov-03 16:31N 37°48' W 122°24'1914.9
2017-Nov-03 15:14N 38°06' W 122°16'2 8.5
2017-Nov-03 14:58N 38°04' W 122°16'1226.4
2017-Nov-03 14:31N 37°54' W 122°26'713.7
2017-Nov-03 14:00N 37°48' W 122°24'1222.5
2017-Nov-03 13:29N 37°60' W 122°25'10 0.8
2017-Nov-03 01:34N 38°06' W 122°16'2 6.8
2017-Nov-03 01:16N 38°04' W 122°15'830.2
2017-Nov-03 01:00N 38°00' W 122°24'1325.3
2017-Nov-03 00:30N 37°48' W 122°24'0 0.7
2017-Nov-03 00:00N 37°48' W 122°23'1810.5
2017-Nov-02 22:18N 38°05' W 122°15'723.6
2017-Nov-02 22:00N 38°01' W 122°22'1427.0
2017-Nov-02 21:31N 37°48' W 122°24'0 0.0
2017-Nov-02 21:01N 37°48' W 122°24'0 0.0
2017-Nov-02 20:30N 37°48' W 122°24'0 0.3
2017-Nov-02 20:01N 37°48' W 122°24'1426.2
2017-Nov-02 19:29N 38°02' W 122°22'6 2.9
2017-Nov-02 17:20N 38°04' W 122°15'1127.5
2017-Nov-02 16:56N 37°57' W 122°26'922.3
2017-Nov-02 16:30N 37°48' W 122°24'1914.2
2017-Nov-02 15:09N 38°06' W 122°16'2 8.8
2017-Nov-02 14:56N 38°04' W 122°15'1330.1
2017-Nov-02 14:31N 37°54' W 122°25'713.4
2017-Nov-02 14:00N 37°48' W 122°24'19 1.6
2017-Nov-02 01:42N 38°06' W 122°16'2 5.6
2017-Nov-02 01:20N 38°04' W 122°15'825.2
2017-Nov-02 01:00N 38°00' W 122°24'1224.6
2017-Nov-02 00:31N 37°48' W 122°24'0 0.1
2017-Nov-02 00:01N 37°48' W 122°24'1912.9
2017-Nov-01 22:31N 38°06' W 122°16'2 7.2
2017-Nov-01 22:17N 38°05' W 122°15'726.8
2017-Nov-01 22:00N 38°01' W 122°23'1326.3
2017-Nov-01 21:30N 37°48' W 122°24'0 0.0
2017-Nov-01 21:00N 37°48' W 122°24'0 0.0
2017-Nov-01 20:30N 37°48' W 122°24'0 0.0
2017-Nov-01 20:00N 37°48' W 122°24'1622.4
2017-Nov-01 19:18N 38°03' W 122°17'3 9.7
2017-Nov-01 18:57N 38°06' W 122°16'0 0.0
2017-Nov-01 01:37N 38°06' W 122°16'0 1.9
2017-Nov-01 01:26N 38°06' W 122°16'715.9
2017-Nov-01 01:01N 38°01' W 122°22'1326.9
2017-Nov-01 00:30N 37°48' W 122°24'0 0.8
2017-Nov-01 00:01N 37°48' W 122°23'1727.9
2017-Oct-31 23:24N 38°04' W 122°15'2 3.2
2017-Oct-31 22:47N 38°06' W 122°16'1 3.1
2017-Oct-31 22:18N 38°05' W 122°15'725.5
2017-Oct-31 22:00N 38°01' W 122°23'1326.1
2017-Oct-31 21:30N 37°48' W 122°24'0 0.0
2017-Oct-31 21:00N 37°48' W 122°24'0 0.0
2017-Oct-31 20:30N 37°48' W 122°24'0 0.0
2017-Oct-31 20:01N 37°48' W 122°24'18 6.8
2017-Oct-31 17:23N 38°04' W 122°15'1231.8
2017-Oct-31 17:00N 37°57' W 122°27'918.3
2017-Oct-31 16:31N 37°48' W 122°24'1710.8
2017-Oct-31 14:56N 38°04' W 122°16'1229.0
2017-Oct-31 14:30N 37°54' W 122°25'611.8
2017-Oct-31 14:01N 37°48' W 122°24'19 2.0
2017-Oct-31 04:31N 38°06' W 122°16'014.3
2017-Oct-31 04:30N 38°06' W 122°16'2 3.8
2017-Oct-31 03:59N 38°04' W 122°15'1327.7
2017-Oct-31 03:30N 37°54' W 122°25'612.1
2017-Oct-31 03:00N 37°48' W 122°24'612.3
2017-Oct-31 02:31N 37°54' W 122°26'1428.1
2017-Oct-31 02:00N 38°04' W 122°15'2 2.4
2017-Oct-31 01:16N 38°06' W 122°16'2 8.1
2017-Oct-31 01:01N 38°04' W 122°15'1326.4
2017-Oct-31 00:31N 37°53' W 122°25'611.4
2017-Oct-31 00:00N 37°48' W 122°24'19 4.4
2017-Oct-30 19:41N 38°06' W 122°16'2 3.9
2017-Oct-30 19:10N 38°04' W 122°15'633.3
2017-Oct-30 19:00N 38°02' W 122°21'1327.6
2017-Oct-30 18:30N 37°49' W 122°25'1 2.4
2017-Oct-30 18:01N 37°48' W 122°23'1919.4
2017-Oct-30 17:02N 38°06' W 122°16'0 0.0
2017-Oct-30 16:40N 38°06' W 122°16'0 0.0
2017-Oct-30 16:30N 38°06' W 122°16'1 2.9
2017-Oct-30 16:00N 38°05' W 122°15'1326.3
2017-Oct-30 15:31N 37°55' W 122°25'611.9
2017-Oct-30 15:01N 37°49' W 122°23'1818.3
2017-Oct-30 14:01N 38°06' W 122°16'0 0.0
2017-Oct-29 05:27N 38°06' W 122°16'1 1.5
2017-Oct-29 05:00N 38°06' W 122°15'1121.9
2017-Oct-29 04:29N 37°58' W 122°26'1021.0
2017-Oct-29 04:00N 37°48' W 122°24'  

Dump ship's entire track history